Time;durP1;ratioP1;P1;durP2;ratioP2;P2;SDS_P1;SDS_P2;PMS_P1;PMS_P2;Temp;Humidity;BMP_temperature;BMP_pressure;BME280_temperature;BME280_humidity;BME280_pressure;Samples;Min_cycle;Max_cycle;Signal;HPM_P1;HPM_P2
2022/08/18 00:02:22;;;;;;;11.75;10.60;;;20.30;99.90;;;;;;5086593;28;20028;-46
2022/08/18 00:04:48;;;;;;;11.07;9.65;;;20.20;99.90;;;;;;5081455;28;20012;-48
2022/08/18 00:07:19;;;;;;;11.57;10.25;;;20.20;99.90;;;;;;5088938;28;20446;-48
2022/08/18 00:09:46;;;;;;;11.70;10.32;;;20.20;99.90;;;;;;5080930;28;20028;-46
2022/08/18 00:12:19;;;;;;;16.33;11.23;;;20.10;99.90;;;;;;5081011;28;20115;-47
2022/08/18 00:14:46;;;;;;;15.05;10.88;;;20.10;99.90;;;;;;5083666;28;20364;-47
2022/08/18 00:17:11;;;;;;;11.85;10.65;;;20.10;99.90;;;;;;5080075;28;20032;-47
2022/08/18 00:19:38;;;;;;;11.95;10.15;;;20.00;99.90;;;;;;5089999;28;20055;-45
2022/08/18 00:22:03;;;;;;;13.15;10.52;;;20.00;99.90;;;;;;5088233;28;20027;-46
2022/08/18 00:24:30;;;;;;;11.10;10.10;;;19.90;99.90;;;;;;5090034;28;20017;-47
2022/08/18 00:26:56;;;;;;;10.77;9.70;;;19.90;99.90;;;;;;5088638;28;20085;-48
2022/08/18 00:29:22;;;;;;;10.93;9.88;;;19.90;99.90;;;;;;5085524;28;20048;-46
2022/08/18 00:31:47;;;;;;;13.38;11.02;;;19.80;99.90;;;;;;5080718;28;20483;-49
2022/08/18 00:34:13;;;;;;;11.75;10.50;;;19.70;99.90;;;;;;5089633;28;20051;-48
2022/08/18 00:36:38;;;;;;;11.45;10.25;;;19.70;99.90;;;;;;5088515;28;20166;-46
2022/08/18 00:39:04;;;;;;;13.13;10.52;;;19.60;99.90;;;;;;5089163;28;20028;-47
2022/08/18 00:41:30;;;;;;;13.27;11.10;;;19.60;99.90;;;;;;5088283;28;20048;-48
2022/08/18 00:43:57;;;;;;;13.30;10.40;;;19.50;99.90;;;;;;5088774;28;20510;-48
2022/08/18 00:46:32;;;;;;;12.43;11.02;;;19.50;99.90;;;;;;5086913;28;20027;-47
2022/08/18 00:48:58;;;;;;;15.68;10.90;;;19.50;99.90;;;;;;5088287;28;20020;-49
2022/08/18 00:51:30;;;;;;;11.10;10.02;;;19.50;99.90;;;;;;5087711;28;20052;-48
2022/08/18 00:54:14;;;;;;;12.70;11.40;;;19.50;99.90;;;;;;5089818;28;20016;-46
2022/08/18 00:56:45;;;;;;;11.55;10.35;;;19.50;99.90;;;;;;5091781;28;20028;-46
2022/08/18 00:59:15;;;;;;;13.73;11.10;;;19.50;99.90;;;;;;5090050;28;20025;-46
2022/08/18 01:01:43;;;;;;;14.98;11.13;;;19.40;99.90;;;;;;5073135;28;20467;-47
2022/08/18 01:04:14;;;;;;;11.77;10.57;;;19.50;99.90;;;;;;5073023;28;20025;-47
2022/08/18 01:06:45;;;;;;;12.90;10.75;;;19.50;99.90;;;;;;5076895;28;20113;-45
2022/08/18 01:09:11;;;;;;;19.90;13.00;;;19.50;99.90;;;;;;5089587;28;20020;-46
2022/08/18 01:11:38;;;;;;;15.65;12.32;;;19.50;99.90;;;;;;5092659;28;20035;-47
2022/08/18 01:14:08;;;;;;;15.40;12.32;;;19.60;99.90;;;;;;5093156;28;20066;-49
2022/08/18 01:22:23;;;;;;;15.40;13.82;;;19.90;99.90;;;;;;5092622;28;20416;-49
2022/08/18 01:27:35;;;;;;;16.58;13.85;;;20.00;99.90;;;;;;5093159;28;20035;-48
2022/08/18 01:30:09;;;;;;;20.13;14.57;;;20.10;99.90;;;;;;5092908;28;20101;-47
2022/08/18 01:32:35;;;;;;;20.98;15.40;;;20.10;99.90;;;;;;5092054;28;20032;-48
2022/08/18 01:35:01;;;;;;;23.00;15.98;;;20.20;99.90;;;;;;5092783;28;20031;-45
2022/08/18 01:37:28;;;;;;;19.65;15.25;;;20.20;99.90;;;;;;5092403;28;20029;-46
2022/08/18 01:39:53;;;;;;;15.90;14.10;;;20.20;99.90;;;;;;5092335;28;20020;-49
2022/08/18 01:42:19;;;;;;;18.73;15.38;;;20.20;99.90;;;;;;5091931;28;20396;-45
2022/08/18 01:44:50;;;;;;;22.00;15.75;;;20.10;99.90;;;;;;5092486;28;20020;-45
2022/08/18 01:47:17;;;;;;;23.23;16.50;;;20.10;99.90;;;;;;5085338;28;20107;-48
2022/08/18 01:49:43;;;;;;;18.00;15.73;;;20.00;99.90;;;;;;5084981;28;20024;-45
2022/08/18 01:52:12;;;;;;;17.88;15.25;;;20.00;99.90;;;;;;5091750;28;20055;-47
2022/08/18 01:54:39;;;;;;;20.97;16.77;;;19.90;99.90;;;;;;5092111;28;20027;-46
2022/08/18 01:57:05;;;;;;;18.33;15.93;;;19.90;99.90;;;;;;5092283;28;20020;-49
2022/08/18 01:59:31;;;;;;;19.75;17.45;;;19.90;99.90;;;;;;5092286;28;20020;-49
2022/08/18 02:01:57;;;;;;;18.48;15.95;;;19.80;99.90;;;;;;5090420;28;20050;-49
2022/08/18 02:04:26;;;;;;;20.48;17.17;;;19.80;99.90;;;;;;5092490;28;20016;-46
2022/08/18 02:06:52;;;;;;;18.17;16.27;;;19.70;99.90;;;;;;5091999;28;20028;-48
2022/08/18 02:09:18;;;;;;;22.75;16.65;;;19.70;99.90;;;;;;5092134;28;20577;-46
2022/08/18 02:11:43;;;;;;;19.42;16.25;;;19.60;99.90;;;;;;5079463;28;20028;-47
2022/08/18 02:14:09;;;;;;;22.83;16.67;;;19.60;99.90;;;;;;5088389;28;20028;-47
2022/08/18 02:16:34;;;;;;;21.52;18.02;;;19.60;99.90;;;;;;5091801;28;20032;-47
2022/08/18 02:19:00;;;;;;;20.58;16.50;;;19.50;99.90;;;;;;5090665;28;20489;-49
2022/08/18 02:21:25;;;;;;;19.63;17.55;;;19.50;99.90;;;;;;5091331;28;20028;-45
2022/08/18 02:23:51;;;;;;;22.38;18.70;;;19.50;99.90;;;;;;5092064;28;20631;-45
2022/08/18 02:26:17;;;;;;;22.95;18.30;;;19.50;99.90;;;;;;5091776;28;20024;-47
2022/08/18 02:28:44;;;;;;;20.15;17.45;;;19.50;99.90;;;;;;5091821;28;20058;-45
2022/08/18 02:31:13;;;;;;;20.73;18.40;;;19.40;99.90;;;;;;5085256;28;20021;-47
2022/08/18 02:33:40;;;;;;;21.80;17.52;;;19.40;99.90;;;;;;5071716;28;20016;-45
2022/08/18 02:36:06;;;;;;;22.38;17.88;;;19.40;99.90;;;;;;5070475;28;20021;-48
2022/08/18 02:38:32;;;;;;;24.10;18.95;;;19.40;99.90;;;;;;5070539;28;20085;-46
2022/08/18 02:41:00;;;;;;;26.40;19.75;;;19.30;99.90;;;;;;5070953;28;20506;-48
2022/08/18 02:43:27;;;;;;;23.70;19.38;;;19.20;99.90;;;;;;5070351;28;20028;-46
2022/08/18 02:45:53;;;;;;;25.90;21.00;;;19.20;99.90;;;;;;5072726;28;20020;-46
2022/08/18 02:48:23;;;;;;;26.38;20.10;;;19.20;99.90;;;;;;5083090;28;20036;-45
2022/08/18 02:50:49;;;;;;;25.48;20.80;;;19.20;99.90;;;;;;5090558;28;20024;-45
2022/08/18 02:53:21;;;;;;;25.55;20.65;;;19.20;99.90;;;;;;5091271;28;20117;-46
2022/08/18 02:55:47;;;;;;;24.00;20.85;;;19.20;99.90;;;;;;5090879;28;20039;-45
2022/08/18 02:58:13;;;;;;;23.70;18.92;;;19.20;99.90;;;;;;5085879;28;20032;-46
2022/08/18 03:00:38;;;;;;;25.58;21.23;;;19.20;99.90;;;;;;5082498;28;20140;-46
2022/08/18 03:03:04;;;;;;;24.23;19.25;;;19.20;99.90;;;;;;5091041;28;20016;-47
2022/08/18 03:05:30;;;;;;;27.02;21.75;;;19.10;99.90;;;;;;5090921;28;20033;-45
2022/08/18 03:07:55;;;;;;;25.17;21.63;;;19.10;99.90;;;;;;5090760;28;20030;-46
2022/08/18 03:10:21;;;;;;;28.65;21.55;;;19.10;99.90;;;;;;5084481;28;20016;-46
2022/08/18 03:12:46;;;;;;;30.48;21.20;;;19.00;99.90;;;;;;5081409;28;20042;-47
2022/08/18 03:15:12;;;;;;;26.98;23.02;;;19.00;99.90;;;;;;5090458;28;20024;-45
2022/08/18 03:17:38;;;;;;;26.63;21.67;;;19.00;99.90;;;;;;5090135;28;20032;-45
2022/08/18 03:20:28;;;;;;;30.85;22.92;;;19.00;99.90;;;;;;5089693;28;20073;-46
2022/08/18 03:22:54;;;;;;;;;;;19.00;99.90;;;;;;5090214;28;20017;-46
2022/08/18 03:25:20;;;;;;;30.20;22.80;;;19.00;99.90;;;;;;5090073;28;19912;-48
2022/08/18 03:27:45;;;;;;;29.42;23.80;;;19.00;99.90;;;;;;5090292;28;20035;-45
2022/08/18 03:30:11;;;;;;;39.20;26.15;;;19.00;99.90;;;;;;5090433;28;20047;-46
2022/08/18 03:32:36;;;;;;;39.92;27.13;;;19.00;99.90;;;;;;5089853;28;20030;-46
2022/08/18 03:35:02;;;;;;;36.97;26.55;;;19.00;99.90;;;;;;5090427;28;20054;-45
2022/08/18 03:37:28;;;;;;;29.90;25.63;;;18.90;99.90;;;;;;5090200;28;20060;-46
2022/08/18 03:39:53;;;;;;;32.38;25.20;;;18.90;99.90;;;;;;5087422;28;20427;-45
2022/08/18 03:42:19;;;;;;;35.15;26.55;;;18.90;99.90;;;;;;5077942;28;20017;-45
2022/08/18 03:44:45;;;;;;;33.10;27.42;;;18.90;99.90;;;;;;5069559;28;20017;-46
2022/08/18 03:47:10;;;;;;;35.22;26.30;;;18.90;99.90;;;;;;5069613;28;20024;-45
2022/08/18 03:49:37;;;;;;;33.10;27.08;;;18.80;99.90;;;;;;5069268;28;20044;-46
2022/08/18 03:52:06;;;;;;;39.35;30.77;;;18.80;99.90;;;;;;5068803;28;20028;-46
2022/08/18 03:54:32;;;;;;;44.67;30.13;;;18.80;99.90;;;;;;5069243;28;20039;-46
2022/08/18 03:56:59;;;;;;;40.63;30.15;;;18.70;99.90;;;;;;5068921;28;20025;-45
2022/08/18 03:59:25;;;;;;;40.88;30.75;;;18.70;99.90;;;;;;5069163;28;20493;-45
2022/08/18 04:01:53;;;;;;;41.78;31.48;;;18.70;99.90;;;;;;5068599;28;20029;-45
2022/08/18 04:04:22;;;;;;;35.40;29.10;;;18.70;99.90;;;;;;5069372;28;20043;-44
2022/08/18 04:06:54;;;;;;;36.55;27.65;;;18.70;99.90;;;;;;5068980;28;20035;-47
2022/08/18 04:09:21;;;;;;;37.72;29.60;;;18.70;99.90;;;;;;5069036;28;20104;-45
2022/08/18 04:11:47;;;;;;;42.03;31.25;;;18.70;99.90;;;;;;5069668;28;20032;-45
2022/08/18 04:14:17;;;;;;;34.80;28.45;;;18.70;99.90;;;;;;5084465;28;20119;-46
2022/08/18 04:16:43;;;;;;;42.55;32.38;;;18.60;99.90;;;;;;5084481;28;20032;-46
2022/08/18 04:19:12;;;;;;;42.05;31.30;;;18.60;99.90;;;;;;5080541;28;20012;-46
2022/08/18 04:21:39;;;;;;;42.20;32.00;;;18.60;99.90;;;;;;5083936;28;20554;-46
2022/08/18 04:24:06;;;;;;;39.97;30.42;;;18.60;99.90;;;;;;5081378;28;20099;-46
2022/08/18 04:26:34;;;;;;;37.75;30.13;;;18.60;99.90;;;;;;5085744;28;20462;-46
2022/08/18 04:29:00;;;;;;;42.50;32.72;;;18.60;99.90;;;;;;5078018;28;20025;-45
2022/08/18 04:31:26;;;;;;;41.70;31.40;;;18.60;99.90;;;;;;5089866;28;20031;-45
2022/08/18 04:33:51;;;;;;;42.65;29.52;;;18.60;99.90;;;;;;5093878;28;20482;-46
2022/08/18 04:36:17;;;;;;;39.78;30.23;;;18.60;99.90;;;;;;5093917;28;20055;-45
2022/08/18 04:38:43;;;;;;;39.85;30.35;;;18.60;99.90;;;;;;5093402;28;20044;-45
2022/08/18 04:41:12;;;;;;;39.22;29.75;;;18.60;99.90;;;;;;5092744;28;20028;-46
2022/08/18 04:43:39;;;;;;;39.42;29.67;;;18.60;99.90;;;;;;5091275;28;20091;-45
2022/08/18 04:46:05;;;;;;;36.58;28.77;;;18.60;99.90;;;;;;5071996;28;20086;-46
2022/08/18 04:48:33;;;;;;;45.05;30.20;;;18.60;99.90;;;;;;5074520;28;20032;-44
2022/08/18 04:51:09;;;;;;;32.97;27.58;;;18.60;99.90;;;;;;5062597;28;20610;-45
2022/08/18 04:53:45;;;;;;;40.45;30.40;;;18.60;99.90;;;;;;5082518;28;20032;-45
2022/08/18 04:56:20;;;;;;;37.67;28.77;;;18.70;99.90;;;;;;5082770;28;20030;-45
2022/08/18 04:58:49;;;;;;;32.83;27.95;;;18.70;99.90;;;;;;5082658;28;20398;-45
2022/08/18 05:01:16;;;;;;;36.93;29.73;;;18.70;99.90;;;;;;5079619;28;20435;-46
2022/08/18 05:03:43;;;;;;;38.50;28.23;;;18.70;99.90;;;;;;5081926;28;20340;-44
2022/08/18 05:06:08;;;;;;;39.05;29.05;;;18.80;99.90;;;;;;5071587;28;20077;-45
2022/08/18 05:08:34;;;;;;;38.63;28.50;;;18.80;99.90;;;;;;5066096;28;20025;-46
2022/08/18 05:11:00;;;;;;;33.13;28.70;;;18.80;99.90;;;;;;5069290;28;20025;-46
2022/08/18 05:13:26;;;;;;;38.33;29.92;;;18.80;99.90;;;;;;5070219;28;20025;-46
2022/08/18 05:15:56;;;;;;;38.20;30.88;;;18.80;99.90;;;;;;5067096;28;20025;-45
2022/08/18 05:18:23;;;;;;;34.67;28.52;;;18.80;99.90;;;;;;5071720;28;20503;-46
2022/08/18 05:20:54;;;;;;;32.05;24.90;;;18.80;99.90;;;;;;5063886;28;20028;-46
2022/08/18 05:23:20;;;;;;;32.35;27.00;;;18.80;99.90;;;;;;5067934;28;20391;-46
2022/08/18 05:25:46;;;;;;;36.35;28.25;;;18.80;99.90;;;;;;5079474;28;20077;-45
2022/08/18 05:28:13;;;;;;;47.20;32.63;;;18.80;99.90;;;;;;5079151;28;20029;-46
2022/08/18 05:30:39;;;;;;;45.33;31.55;;;18.80;99.90;;;;;;5086857;28;20452;-45
2022/08/18 05:33:05;;;;;;;39.72;31.40;;;18.90;99.90;;;;;;5074520;28;20487;-45
2022/08/18 05:35:45;;;;;;;40.72;30.65;;;18.90;99.90;;;;;;5084607;28;20021;-45
2022/08/18 05:38:49;;;;;;;48.78;31.88;;;18.90;99.90;;;;;;5070926;28;20021;-46
2022/08/18 05:41:26;;;;;;;36.75;27.13;;;18.90;99.90;;;;;;5050024;28;20017;-46
2022/08/18 05:43:53;;;;;;;38.35;29.23;;;18.90;99.90;;;;;;5052305;28;20056;-45
2022/08/18 05:46:23;;;;;;;38.55;30.20;;;18.90;99.90;;;;;;5070116;28;20486;-45
2022/08/18 05:48:49;;;;;;;37.03;29.55;;;18.90;99.90;;;;;;5085783;28;20041;-46
2022/08/18 05:51:21;;;;;;;41.15;28.67;;;19.00;99.90;;;;;;5089573;28;20032;-45
2022/08/18 05:56:47;;;;;;;42.15;31.85;;;19.00;99.90;;;;;;5087456;28;20131;-46
2022/08/18 05:59:19;;;;;;;41.72;31.02;;;19.10;99.90;;;;;;5091520;28;20046;-47
2022/08/18 06:01:51;;;;;;;36.15;28.40;;;19.10;99.90;;;;;;5091186;28;20028;-45
2022/08/18 06:04:33;;;;;;;40.13;30.02;;;19.20;99.90;;;;;;5090742;28;20386;-48
2022/08/18 06:07:03;;;;;;;33.42;27.30;;;19.30;99.90;;;;;;5091900;28;20020;-49
2022/08/18 06:09:36;;;;;;;40.75;30.00;;;19.30;99.90;;;;;;5090508;28;20347;-46
2022/08/18 06:12:19;;;;;;;36.78;27.70;;;19.40;99.90;;;;;;5080112;28;20047;-47
2022/08/18 06:14:45;;;;;;;39.22;29.50;;;19.40;99.90;;;;;;5050258;28;20025;-46
2022/08/18 06:17:34;;;;;;;34.22;28.20;;;19.50;99.90;;;;;;5049915;28;20480;-47
2022/08/18 06:20:08;;;;;;;35.67;27.42;;;19.60;99.90;;;;;;5050502;28;20025;-49
2022/08/18 06:22:48;;;;;;;35.83;28.13;;;19.70;99.90;;;;;;5048376;28;20492;-47
2022/08/18 06:25:26;;;;;;;38.22;29.60;;;19.80;99.90;;;;;;5052704;28;20078;-46
2022/08/18 06:28:06;;;;;;;35.28;28.02;;;19.90;99.90;;;;;;5089093;28;20122;-47
2022/08/18 06:30:40;;;;;;;39.38;29.48;;;19.90;99.90;;;;;;5088564;28;20024;-48
2022/08/18 06:33:34;;;;;;;35.60;28.40;;;20.10;99.90;;;;;;5083555;28;20037;-48
2022/08/18 06:36:11;;;;;;;38.88;28.25;;;20.10;99.90;;;;;;5067419;28;20029;-46
2022/08/18 06:38:56;;;;;;;33.67;26.13;;;20.20;99.90;;;;;;5062012;28;20395;-45
2022/08/18 06:41:32;;;;;;;33.72;27.45;;;20.20;99.90;;;;;;5059435;28;20021;-45
2022/08/18 06:44:04;;;;;;;36.08;27.50;;;20.30;99.90;;;;;;5073354;28;20080;-46
2022/08/18 06:47:03;;;;;;;35.67;28.75;;;20.40;99.90;;;;;;5069583;28;20512;-47
2022/08/18 06:49:50;;;;;;;38.60;30.05;;;20.50;99.90;;;;;;5069392;28;20108;-46
2022/08/18 06:52:32;;;;;;;37.58;30.90;;;20.60;99.90;;;;;;5067425;28;20408;-46
2022/08/18 06:55:05;;;;;;;43.88;31.50;;;20.60;99.90;;;;;;5048755;28;20112;-47
2022/08/18 06:57:37;;;;;;;34.33;28.05;;;20.60;99.90;;;;;;5049395;28;20032;-46
2022/08/18 07:00:10;;;;;;;35.95;28.90;;;20.60;99.90;;;;;;5049511;28;20163;-47
2022/08/18 07:02:47;;;;;;;34.53;27.55;;;20.70;99.90;;;;;;5049023;28;20104;-48
2022/08/18 07:05:19;;;;;;;32.72;28.65;;;20.70;99.90;;;;;;5049513;28;20073;-48
2022/08/18 07:07:45;;;;;;;38.67;30.38;;;20.80;99.90;;;;;;5049430;28;20040;-48
2022/08/18 07:10:13;;;;;;;37.63;29.73;;;20.90;99.90;;;;;;5049706;28;20059;-46
2022/08/18 07:12:40;;;;;;;33.25;26.40;;;21.10;99.90;;;;;;5068782;28;20031;-47
2022/08/18 07:15:09;;;;;;;32.25;26.85;;;21.10;99.90;;;;;;5085022;28;20445;-47
2022/08/18 07:17:40;;;;;;;35.72;28.73;;;21.10;99.90;;;;;;5089435;28;20058;-47
2022/08/18 07:20:18;;;;;;;;;;;21.30;99.90;;;;;;5088404;28;20251;-48
2022/08/18 07:22:59;;;;;;;34.90;27.38;;;21.30;99.90;;;;;;5084258;28;20446;-46
2022/08/18 07:25:29;;;;;;;30.58;25.90;;;21.40;99.90;;;;;;5079166;28;20027;-46
2022/08/18 07:27:55;;;;;;;36.63;29.98;;;21.60;99.90;;;;;;5089150;28;20034;-48
2022/08/18 07:30:20;;;;;;;35.22;29.83;;;21.70;99.90;;;;;;5088943;28;20024;-48
2022/08/18 07:33:10;;;;;;;33.30;28.85;;;21.70;99.90;;;;;;5088450;28;20032;-47
2022/08/18 07:36:02;;;;;;;35.50;27.35;;;21.80;99.90;;;;;;5068394;28;20021;-47
2022/08/18 07:38:47;;;;;;;34.67;29.05;;;21.90;99.90;;;;;;5068758;28;20029;-46
2022/08/18 07:41:29;;;;;;;30.02;26.08;;;21.80;99.90;;;;;;5067856;28;20029;-46
2022/08/18 07:43:59;;;;;;;32.67;26.70;;;21.90;99.90;;;;;;5068458;28;20056;-46
2022/08/18 07:46:43;;;;;;;30.25;23.48;;;22.00;99.90;;;;;;5080456;28;20035;-46
2022/08/18 07:49:33;;;;;;;28.55;24.70;;;22.20;99.90;;;;;;5096582;28;20111;-46
2022/08/18 07:52:12;;;;;;;25.92;20.23;;;22.40;99.90;;;;;;5096970;28;20525;-49
2022/08/18 07:54:56;;;;;;;26.88;22.58;;;22.70;99.90;;;;;;5098717;28;20036;-47
2022/08/18 07:57:27;;;;;;;23.67;20.35;;;22.80;99.90;;;;;;5080465;28;20151;-48
2022/08/18 08:00:02;;;;;;;27.60;23.02;;;22.80;99.90;;;;;;5087350;28;20036;-47
2022/08/18 08:02:58;;;;;;;26.88;22.92;;;22.80;99.90;;;;;;5077141;28;20024;-47
2022/08/18 08:05:40;;;;;;;33.03;23.95;;;22.80;99.90;;;;;;5084415;28;20020;-45
2022/08/18 08:08:43;;;;;;;23.27;20.75;;;23.00;99.90;;;;;;5073294;28;20071;-45
2022/08/18 08:11:19;;;;;;;24.98;18.95;;;23.20;99.90;;;;;;5072319;28;20028;-45
2022/08/18 08:13:59;;;;;;;21.23;17.60;;;23.80;99.90;;;;;;5074319;28;20060;-47
2022/08/18 08:16:44;;;;;;;18.42;15.93;;;24.50;99.90;;;;;;5079030;28;20103;-46
2022/08/18 08:19:35;;;;;;;20.92;18.77;;;25.50;99.90;;;;;;5078053;28;20516;-45
2022/08/18 08:22:11;;;;;;;17.00;15.25;;;26.50;99.90;;;;;;5067978;28;20305;-46
2022/08/18 08:25:02;;;;;;;16.70;15.07;;;27.50;99.90;;;;;;5066931;28;20036;-46
2022/08/18 08:28:01;;;;;;;14.25;12.77;;;27.70;97.80;;;;;;5072991;28;20464;-45
2022/08/18 08:30:32;;;;;;;15.02;13.60;;;28.60;95.70;;;;;;5075824;28;20082;-45
2022/08/18 08:33:03;;;;;;;18.45;14.93;;;29.20;93.70;;;;;;5073481;28;20032;-49
2022/08/18 08:35:44;;;;;;;16.40;14.82;;;29.40;93.50;;;;;;5079289;28;20431;-46
2022/08/18 08:38:31;;;;;;;14.45;13.00;;;29.20;93.00;;;;;;5069761;28;20528;-47
2022/08/18 08:41:02;;;;;;;15.93;14.32;;;29.90;91.50;;;;;;5068698;28;20229;-45
2022/08/18 08:43:41;;;;;;;15.25;13.70;;;29.40;91.60;;;;;;5076412;28;20016;-45
2022/08/18 08:46:23;;;;;;;16.60;14.77;;;29.40;91.90;;;;;;5076520;28;20514;-45
2022/08/18 08:49:02;;;;;;;20.77;17.55;;;29.00;92.00;;;;;;5075106;28;20269;-45
2022/08/18 08:51:43;;;;;;;21.88;19.65;;;28.50;92.60;;;;;;5075354;28;20084;-46
2022/08/18 08:54:22;;;;;;;16.10;14.50;;;27.80;93.10;;;;;;5071568;28;20024;-45
2022/08/18 08:56:50;;;;;;;21.73;19.23;;;27.10;94.90;;;;;;5075023;28;20020;-47
2022/08/18 08:59:20;;;;;;;23.25;19.75;;;26.60;95.70;;;;;;5072731;28;20426;-45
2022/08/18 09:01:55;;;;;;;;;;;26.20;96.10;;;;;;5066823;28;20017;-46
2022/08/18 09:04:53;;;;;;;23.20;17.38;;;26.00;96.80;;;;;;5064761;28;19904;-47
2022/08/18 09:07:38;;;;;;;22.08;17.67;;;26.00;97.10;;;;;;5079377;28;20077;-46
2022/08/18 09:10:38;;;;;;;18.95;16.95;;;26.50;97.70;;;;;;5087700;28;20028;-47
2022/08/18 09:13:29;;;;;;;16.08;14.43;;;27.60;94.50;;;;;;5071383;28;20025;-47
2022/08/18 09:16:25;;;;;;;20.38;18.27;;;28.00;94.10;;;;;;5067773;28;20507;-46
2022/08/18 09:19:12;;;;;;;18.92;14.75;;;28.30;93.60;;;;;;5071286;28;20109;-45
2022/08/18 09:21:54;;;;;;;17.55;15.65;;;29.00;92.80;;;;;;5069335;28;20101;-46
2022/08/18 09:24:24;;;;;;;21.58;18.88;;;29.40;92.20;;;;;;5071215;28;20437;-46
2022/08/18 09:27:14;;;;;;;17.08;15.38;;;29.30;91.30;;;;;;5071066;28;20028;-46
2022/08/18 09:29:51;;;;;;;19.45;14.10;;;28.90;91.80;;;;;;5071593;28;20029;-46
2022/08/18 09:32:19;;;;;;;17.02;15.38;;;29.00;92.20;;;;;;5070326;28;20029;-46
2022/08/18 09:35:15;;;;;;;18.73;16.77;;;29.20;91.10;;;;;;5069744;28;20074;-45
2022/08/18 09:37:47;;;;;;;15.20;12.73;;;29.70;90.80;;;;;;5071058;28;20107;-46
2022/08/18 09:43:51;;;;;;;22.95;20.58;;;29.60;89.80;;;;;;5082444;28;20027;-45
2022/08/18 09:46:42;;;;;;;18.77;16.85;;;28.60;90.80;;;;;;5090841;28;20024;-45
2022/08/18 09:49:26;;;;;;;17.45;15.63;;;28.70;91.60;;;;;;5091009;28;20059;-46
2022/08/18 09:51:59;;;;;;;22.25;19.20;;;28.50;91.60;;;;;;5090363;28;20028;-46
2022/08/18 09:54:31;;;;;;;19.80;17.70;;;28.90;91.10;;;;;;5090996;28;20028;-48
2022/08/18 09:57:16;;;;;;;18.20;16.15;;;28.70;91.30;;;;;;5090669;28;20032;-47
2022/08/18 09:59:44;;;;;;;17.13;15.10;;;28.90;91.10;;;;;;5090823;28;20027;-46
2022/08/18 10:02:31;;;;;;;15.25;13.75;;;28.50;91.60;;;;;;5089846;28;20027;-48
2022/08/18 10:05:15;;;;;;;15.77;14.13;;;28.40;91.70;;;;;;5078067;28;20037;-47
2022/08/18 10:07:42;;;;;;;21.05;18.25;;;28.10;92.60;;;;;;5052223;28;20052;-47
2022/08/18 10:10:36;;;;;;;18.38;15.80;;;28.40;92.10;;;;;;5048092;28;20067;-46
2022/08/18 10:13:35;;;;;;;17.92;16.02;;;28.30;91.50;;;;;;5076671;28;20051;-46
2022/08/18 10:16:07;;;;;;;18.92;14.95;;;28.10;92.60;;;;;;5068521;28;20025;-49
2022/08/18 10:19:09;;;;;;;18.17;16.30;;;28.10;92.60;;;;;;5068335;28;20048;-46
2022/08/18 10:22:02;;;;;;;18.15;16.33;;;28.20;92.60;;;;;;5070542;28;20028;-46
2022/08/18 10:24:39;;;;;;;22.52;19.08;;;27.60;92.70;;;;;;5089724;28;20077;-46
2022/08/18 10:27:11;;;;;;;22.00;16.90;;;27.00;93.70;;;;;;5089813;28;20024;-45
2022/08/18 10:29:40;;;;;;;20.70;18.00;;;26.90;94.10;;;;;;5089921;28;20031;-46
2022/08/18 10:32:09;;;;;;;22.95;18.67;;;26.70;94.30;;;;;;5088852;28;20024;-47
2022/08/18 10:34:51;;;;;;;17.60;14.88;;;26.60;95.00;;;;;;5089498;28;20074;-46
2022/08/18 10:37:41;;;;;;;15.50;13.88;;;27.40;94.40;;;;;;5089518;28;20479;-46
2022/08/18 10:40:12;;;;;;;150.18;132.60;;;28.40;93.00;;;;;;5089967;28;20103;-47
2022/08/18 10:42:39;;;;;;;14.65;12.93;;;28.80;91.70;;;;;;5088612;28;20024;-46
2022/08/18 10:45:29;;;;;;;15.57;11.80;;;29.10;91.40;;;;;;5078737;28;20392;-48
2022/08/18 10:48:34;;;;;;;15.13;13.55;;;29.70;90.90;;;;;;5065387;28;20614;-48
2022/08/18 10:51:26;;;;;;;16.33;14.23;;;29.70;90.20;;;;;;5062280;28;20037;-47
2022/08/18 10:54:40;;;;;;;13.68;11.65;;;29.20;90.30;;;;;;5066816;28;20136;-46
2022/08/18 10:57:18;;;;;;;16.85;15.15;;;28.90;90.50;;;;;;5025452;28;20519;-46
2022/08/18 10:59:53;;;;;;;18.83;13.68;;;29.00;90.60;;;;;;5064325;28;20039;-46
2022/08/18 11:02:43;;;;;;;11.75;10.43;;;29.10;90.50;;;;;;5067456;28;20013;-47
2022/08/18 11:05:09;;;;;;;;;;;28.80;90.60;;;;;;5066473;28;20545;-46
2022/08/18 11:07:37;;;;;;;19.08;14.45;;;28.60;90.50;;;;;;5073651;28;19961;-45
2022/08/18 11:10:16;;;;;;;20.30;15.95;;;28.20;90.70;;;;;;5078878;28;20461;-46
2022/08/18 11:12:51;;;;;;;15.70;13.77;;;28.10;91.20;;;;;;5063291;28;20532;-48
2022/08/18 11:15:46;;;;;;;18.95;14.85;;;29.00;90.80;;;;;;5078880;28;20081;-46
2022/08/18 11:18:28;;;;;;;13.60;10.98;;;30.70;87.20;;;;;;5071680;28;20024;-46
2022/08/18 11:21:32;;;;;;;9.95;8.95;;;32.00;84.70;;;;;;5080900;28;20475;-46
2022/08/18 11:24:02;;;;;;;11.00;9.80;;;32.70;80.60;;;;;;5087113;28;20063;-46
2022/08/18 11:26:42;;;;;;;9.45;8.48;;;33.10;79.10;;;;;;5075203;28;20031;-44
2022/08/18 11:29:30;;;;;;;11.73;10.48;;;33.80;77.60;;;;;;5084662;28;20394;-46
2022/08/18 11:32:22;;;;;;;14.23;11.07;;;34.50;73.70;;;;;;5083150;28;20363;-46
2022/08/18 11:34:58;;;;;;;10.93;9.82;;;34.70;71.30;;;;;;5071894;28;20024;-46
2022/08/18 11:37:38;;;;;;;9.32;8.13;;;34.40;72.90;;;;;;5076542;28;20028;-49
2022/08/18 11:40:27;;;;;;;9.13;8.30;;;34.70;70.70;;;;;;5078847;28;20099;-47
2022/08/18 11:43:01;;;;;;;9.65;8.55;;;34.80;71.20;;;;;;5062025;28;20079;-46
2022/08/18 11:45:46;;;;;;;8.55;7.70;;;35.20;69.90;;;;;;5064344;28;20169;-46
2022/08/18 11:48:17;;;;;;;9.75;8.85;;;35.10;68.80;;;;;;5054870;28;20566;-46
2022/08/18 11:50:53;;;;;;;10.05;8.32;;;35.60;67.20;;;;;;5061488;28;20526;-46
2022/08/18 11:53:41;;;;;;;9.07;8.27;;;35.80;66.80;;;;;;5067288;28;20070;-46
2022/08/18 11:56:10;;;;;;;24.65;22.02;;;34.70;67.40;;;;;;5065017;28;20032;-46
2022/08/18 11:58:48;;;;;;;25.52;22.88;;;34.40;68.80;;;;;;5062966;28;20037;-48
2022/08/18 12:01:34;;;;;;;9.10;8.10;;;34.40;68.60;;;;;;5070721;28;20407;-47
2022/08/18 12:04:38;;;;;;;9.07;8.10;;;35.30;67.70;;;;;;5063648;28;20457;-49
2022/08/18 12:07:10;;;;;;;8.48;7.43;;;35.00;66.80;;;;;;5065352;28;20576;-47
2022/08/18 12:10:01;;;;;;;9.13;8.23;;;35.10;67.00;;;;;;5065378;28;20119;-46
2022/08/18 12:12:31;;;;;;;10.60;9.57;;;35.40;66.40;;;;;;5074600;28;20546;-47
2022/08/18 12:15:02;;;;;;;;;;;35.40;64.50;;;;;;5066297;28;20195;-45
2022/08/18 12:17:30;;;;;;;9.98;8.30;;;34.70;65.90;;;;;;5071687;28;19927;-48
2022/08/18 12:19:56;;;;;;;10.43;7.60;;;34.20;67.40;;;;;;5081792;28;20336;-46
2022/08/18 12:22:26;;;;;;;8.02;7.32;;;33.30;68.00;;;;;;5082201;28;20020;-47
2022/08/18 12:24:52;;;;;;;9.02;8.10;;;33.20;69.00;;;;;;5080839;28;20020;-46
2022/08/18 12:27:23;;;;;;;9.05;7.95;;;32.90;69.70;;;;;;5078218;28;20037;-47
2022/08/18 12:29:54;;;;;;;9.02;8.13;;;32.90;69.70;;;;;;5078824;28;20092;-49
2022/08/18 12:32:21;;;;;;;8.32;7.47;;;32.90;69.50;;;;;;5087254;28;20062;-47
2022/08/18 12:34:47;;;;;;;9.95;7.75;;;32.90;70.30;;;;;;5087082;28;20058;-45
2022/08/18 12:37:17;;;;;;;10.10;7.82;;;32.40;69.00;;;;;;5075980;28;20033;-46
2022/08/18 12:39:43;;;;;;;9.02;8.13;;;32.60;69.10;;;;;;5087278;28;20035;-47
2022/08/18 12:42:10;;;;;;;9.07;8.18;;;32.50;68.20;;;;;;5079218;28;20035;-45
2022/08/18 12:44:35;;;;;;;9.00;8.13;;;32.00;70.30;;;;;;5079429;28;20479;-46
2022/08/18 12:47:05;;;;;;;11.55;7.90;;;31.50;70.70;;;;;;5079587;28;20039;-46
2022/08/18 12:49:30;;;;;;;10.68;9.02;;;31.20;71.80;;;;;;5078074;28;20699;-45
2022/08/18 12:51:57;;;;;;;8.85;7.95;;;30.80;73.00;;;;;;5081908;28;20032;-46
2022/08/18 12:54:23;;;;;;;9.35;8.20;;;30.70;72.40;;;;;;5076302;28;20017;-46
2022/08/18 12:56:52;;;;;;;11.02;8.43;;;30.90;73.40;;;;;;5061500;28;20020;-49
2022/08/18 12:59:18;;;;;;;8.65;7.85;;;31.20;72.80;;;;;;5080765;28;20427;-45
2022/08/18 13:01:44;;;;;;;9.18;8.32;;;31.10;72.80;;;;;;5086537;28;20024;-46
2022/08/18 13:04:09;;;;;;;16.20;14.00;;;31.50;72.80;;;;;;5079359;28;20032;-46
2022/08/18 13:06:39;;;;;;;16.05;14.15;;;31.30;72.00;;;;;;5089522;28;20111;-47
2022/08/18 13:09:06;;;;;;;10.32;9.32;;;31.60;72.80;;;;;;5077927;28;20021;-47
2022/08/18 13:11:31;;;;;;;10.88;9.68;;;31.60;72.40;;;;;;5088222;28;20364;-48
2022/08/18 13:13:57;;;;;;;9.35;8.40;;;31.00;72.40;;;;;;5083306;28;20024;-46
2022/08/18 13:16:24;;;;;;;10.05;8.98;;;31.00;74.80;;;;;;5082872;28;20415;-48
2022/08/18 13:18:49;;;;;;;10.35;9.40;;;31.10;73.00;;;;;;5090542;28;20024;-49